sensor_id;sensor_type;location;lat;lon;timestamp;pressure;altitude;pressure_sealevel;temperature;humidity
21401;BME280;18038;50.166;18.908;2023-04-08T00:02:24;98077.41;;;0.21;89.50
21401;BME280;18038;50.166;18.908;2023-04-08T00:05:33;98082.28;;;0.25;89.31
21401;BME280;18038;50.166;18.908;2023-04-08T00:08:41;98082.59;;;0.32;88.66
21401;BME280;18038;50.166;18.908;2023-04-08T00:11:48;98080.13;;;0.30;88.26
21401;BME280;18038;50.166;18.908;2023-04-08T00:14:54;98089.72;;;0.20;88.05
21401;BME280;18038;50.166;18.908;2023-04-08T00:18:01;98090.84;;;0.27;88.15
21401;BME280;18038;50.166;18.908;2023-04-08T00:21:07;98096.06;;;0.17;87.84
21401;BME280;18038;50.166;18.908;2023-04-08T00:24:20;98098.28;;;0.22;87.71
21401;BME280;18038;50.166;18.908;2023-04-08T00:27:26;98099.34;;;0.31;87.36
21401;BME280;18038;50.166;18.908;2023-04-08T00:30:33;98103.31;;;0.25;86.93
21401;BME280;18038;50.166;18.908;2023-04-08T00:33:39;98116.03;;;0.30;86.98
21401;BME280;18038;50.166;18.908;2023-04-08T00:36:48;98108.31;;;0.28;87.02
21401;BME280;18038;50.166;18.908;2023-04-08T00:39:57;98114.38;;;0.29;86.71
21401;BME280;18038;50.166;18.908;2023-04-08T00:43:04;98111.31;;;0.24;86.71
21401;BME280;18038;50.166;18.908;2023-04-08T00:46:10;98122.66;;;0.24;86.85
21401;BME280;18038;50.166;18.908;2023-04-08T00:49:17;98117.19;;;0.16;87.12
21401;BME280;18038;50.166;18.908;2023-04-08T00:52:23;98110.78;;;0.09;87.15
21401;BME280;18038;50.166;18.908;2023-04-08T00:55:32;98120.59;;;0.07;87.48
21401;BME280;18038;50.166;18.908;2023-04-08T00:58:39;98125.69;;;0.08;86.98
21401;BME280;18038;50.166;18.908;2023-04-08T01:01:53;98120.06;;;0.13;87.18
21401;BME280;18038;50.166;18.908;2023-04-08T01:05:07;98119.25;;;0.12;86.83
21401;BME280;18038;50.166;18.908;2023-04-08T01:08:19;98128.59;;;0.26;86.44
21401;BME280;18038;50.166;18.908;2023-04-08T01:11:34;98116.19;;;0.28;85.44
21401;BME280;18038;50.166;18.908;2023-04-08T01:14:46;98121.41;;;0.07;85.21
21401;BME280;18038;50.166;18.908;2023-04-08T01:17:58;98123.06;;;0.08;85.30
21401;BME280;18038;50.166;18.908;2023-04-08T01:21:07;98128.47;;;0.07;85.34
21401;BME280;18038;50.166;18.908;2023-04-08T01:24:22;98129.25;;;0.18;85.47
21401;BME280;18038;50.166;18.908;2023-04-08T01:27:39;98125.84;;;0.07;85.18
21401;BME280;18038;50.166;18.908;2023-04-08T01:30:48;98126.22;;;0.02;85.71
21401;BME280;18038;50.166;18.908;2023-04-08T01:33:59;98124.94;;;-0.04;85.41
21401;BME280;18038;50.166;18.908;2023-04-08T01:37:08;98131.00;;;-0.03;85.58
21401;BME280;18038;50.166;18.908;2023-04-08T01:40:18;98129.56;;;-0.07;85.83
21401;BME280;18038;50.166;18.908;2023-04-08T01:43:32;98122.66;;;-0.08;85.40
21401;BME280;18038;50.166;18.908;2023-04-08T01:46:42;98133.28;;;-0.10;85.53
21401;BME280;18038;50.166;18.908;2023-04-08T01:49:52;98130.66;;;-0.10;85.40
21401;BME280;18038;50.166;18.908;2023-04-08T01:53:03;98139.53;;;-0.22;85.45
21401;BME280;18038;50.166;18.908;2023-04-08T01:56:12;98140.00;;;-0.17;85.77
21401;BME280;18038;50.166;18.908;2023-04-08T01:59:30;98138.41;;;-0.08;85.57
21401;BME280;18038;50.166;18.908;2023-04-08T02:02:43;98147.88;;;-0.17;85.63
21401;BME280;18038;50.166;18.908;2023-04-08T02:05:53;98139.41;;;-0.20;85.70
21401;BME280;18038;50.166;18.908;2023-04-08T02:08:59;98146.41;;;-0.10;85.65
21401;BME280;18038;50.166;18.908;2023-04-08T02:12:08;98145.84;;;-0.13;85.21
21401;BME280;18038;50.166;18.908;2023-04-08T02:15:16;98144.88;;;-0.12;85.60
21401;BME280;18038;50.166;18.908;2023-04-08T02:18:26;98150.50;;;-0.17;85.33
21401;BME280;18038;50.166;18.908;2023-04-08T02:21:37;98151.91;;;-0.01;85.35
21401;BME280;18038;50.166;18.908;2023-04-08T02:24:52;98150.84;;;-0.10;85.50
21401;BME280;18038;50.166;18.908;2023-04-08T02:28:02;98152.53;;;-0.20;85.47
21401;BME280;18038;50.166;18.908;2023-04-08T02:31:16;98152.81;;;-0.35;85.47
21401;BME280;18038;50.166;18.908;2023-04-08T02:34:25;98159.63;;;-0.32;85.60
21401;BME280;18038;50.166;18.908;2023-04-08T02:37:32;98159.28;;;-0.50;85.64
21401;BME280;18038;50.166;18.908;2023-04-08T02:40:41;98159.63;;;-0.55;85.53
21401;BME280;18038;50.166;18.908;2023-04-08T02:43:48;98158.94;;;-0.68;84.76
21401;BME280;18038;50.166;18.908;2023-04-08T02:46:59;98160.88;;;-0.70;84.98
21401;BME280;18038;50.166;18.908;2023-04-08T02:50:10;98157.03;;;-0.66;85.40
21401;BME280;18038;50.166;18.908;2023-04-08T02:53:16;98163.00;;;-0.64;85.34
21401;BME280;18038;50.166;18.908;2023-04-08T02:56:23;98164.44;;;-0.82;85.80
21401;BME280;18038;50.166;18.908;2023-04-08T02:59:29;98165.16;;;-0.80;86.01
21401;BME280;18038;50.166;18.908;2023-04-08T03:02:38;98170.25;;;-0.79;85.98
21401;BME280;18038;50.166;18.908;2023-04-08T03:05:44;98166.47;;;-0.75;85.81
21401;BME280;18038;50.166;18.908;2023-04-08T03:08:51;98177.06;;;-0.87;85.60
21401;BME280;18038;50.166;18.908;2023-04-08T03:11:57;98181.13;;;-0.83;85.90
21401;BME280;18038;50.166;18.908;2023-04-08T03:15:04;98175.91;;;-0.83;85.77
21401;BME280;18038;50.166;18.908;2023-04-08T03:18:17;98183.38;;;-0.90;85.78
21401;BME280;18038;50.166;18.908;2023-04-08T03:21:24;98173.47;;;-0.86;86.56
21401;BME280;18038;50.166;18.908;2023-04-08T03:24:33;98178.28;;;-0.92;86.41
21401;BME280;18038;50.166;18.908;2023-04-08T03:27:39;98175.19;;;-0.97;86.33
21401;BME280;18038;50.166;18.908;2023-04-08T03:30:47;98183.75;;;-0.83;86.11
21401;BME280;18038;50.166;18.908;2023-04-08T03:33:57;98182.41;;;-0.89;85.60
21401;BME280;18038;50.166;18.908;2023-04-08T03:37:03;98190.75;;;-1.06;85.87
21401;BME280;18038;50.166;18.908;2023-04-08T03:40:11;98188.63;;;-1.01;86.32
21401;BME280;18038;50.166;18.908;2023-04-08T03:43:17;98186.94;;;-1.02;85.94
21401;BME280;18038;50.166;18.908;2023-04-08T03:46:24;98194.56;;;-1.10;85.96
21401;BME280;18038;50.166;18.908;2023-04-08T03:49:33;98196.13;;;-1.08;86.17
21401;BME280;18038;50.166;18.908;2023-04-08T03:52:40;98201.63;;;-0.88;85.96
21401;BME280;18038;50.166;18.908;2023-04-08T03:55:47;98208.63;;;-1.23;86.13
21401;BME280;18038;50.166;18.908;2023-04-08T03:58:55;98203.28;;;-1.10;85.84
21401;BME280;18038;50.166;18.908;2023-04-08T04:02:02;98209.13;;;-1.06;85.46
21401;BME280;18038;50.166;18.908;2023-04-08T04:05:11;98218.06;;;-0.98;85.32
21401;BME280;18038;50.166;18.908;2023-04-08T04:08:17;98216.41;;;-0.99;85.54
21401;BME280;18038;50.166;18.908;2023-04-08T04:11:24;98220.94;;;-0.89;85.14
21401;BME280;18038;50.166;18.908;2023-04-08T04:14:30;98220.09;;;-0.90;84.87
21401;BME280;18038;50.166;18.908;2023-04-08T04:17:37;98231.31;;;-0.77;84.73
21401;BME280;18038;50.166;18.908;2023-04-08T04:20:46;98222.97;;;-0.82;84.63
21401;BME280;18038;50.166;18.908;2023-04-08T04:23:52;98235.59;;;-0.87;84.17
21401;BME280;18038;50.166;18.908;2023-04-08T04:26:58;98238.59;;;-0.80;84.54
21401;BME280;18038;50.166;18.908;2023-04-08T04:30:07;98242.28;;;-0.83;84.36
21401;BME280;18038;50.166;18.908;2023-04-08T04:33:17;98235.47;;;-0.97;84.55
21401;BME280;18038;50.166;18.908;2023-04-08T04:36:27;98238.31;;;-1.00;84.67
21401;BME280;18038;50.166;18.908;2023-04-08T04:39:33;98245.69;;;-1.05;84.95
21401;BME280;18038;50.166;18.908;2023-04-08T04:42:40;98245.59;;;-1.03;84.45
21401;BME280;18038;50.166;18.908;2023-04-08T04:45:46;98240.81;;;-1.09;84.68
21401;BME280;18038;50.166;18.908;2023-04-08T04:48:53;98249.94;;;-1.26;84.57
21401;BME280;18038;50.166;18.908;2023-04-08T04:52:01;98259.03;;;-1.08;84.70
21401;BME280;18038;50.166;18.908;2023-04-08T04:55:08;98257.13;;;-1.06;83.74
21401;BME280;18038;50.166;18.908;2023-04-08T04:58:17;98262.28;;;-0.93;83.37
21401;BME280;18038;50.166;18.908;2023-04-08T05:01:23;98266.47;;;-0.90;83.09
21401;BME280;18038;50.166;18.908;2023-04-08T05:04:30;98265.50;;;-1.01;83.23
21401;BME280;18038;50.166;18.908;2023-04-08T05:07:40;98269.81;;;-0.88;83.22
21401;BME280;18038;50.166;18.908;2023-04-08T05:10:46;98268.38;;;-0.93;83.58
21401;BME280;18038;50.166;18.908;2023-04-08T05:13:53;98271.72;;;-0.90;83.42
21401;BME280;18038;50.166;18.908;2023-04-08T05:16:59;98275.81;;;-0.75;83.37
21401;BME280;18038;50.166;18.908;2023-04-08T05:20:06;98270.31;;;-0.72;82.69
21401;BME280;18038;50.166;18.908;2023-04-08T05:23:15;98283.28;;;-0.71;82.06
21401;BME280;18038;50.166;18.908;2023-04-08T05:26:22;98284.34;;;-0.73;82.42
21401;BME280;18038;50.166;18.908;2023-04-08T05:29:28;98288.69;;;-0.61;82.36
21401;BME280;18038;50.166;18.908;2023-04-08T05:32:38;98283.09;;;-0.45;81.81
21401;BME280;18038;50.166;18.908;2023-04-08T05:35:44;98290.84;;;-0.43;81.78
21401;BME280;18038;50.166;18.908;2023-04-08T05:38:54;98287.75;;;-0.37;81.53
21401;BME280;18038;50.166;18.908;2023-04-08T05:42:02;98287.63;;;-0.24;80.74
21401;BME280;18038;50.166;18.908;2023-04-08T05:45:09;98302.56;;;-0.25;80.02
21401;BME280;18038;50.166;18.908;2023-04-08T05:48:15;98304.94;;;-0.22;80.48
21401;BME280;18038;50.166;18.908;2023-04-08T05:51:22;98302.41;;;-0.12;80.46
21401;BME280;18038;50.166;18.908;2023-04-08T05:54:31;98317.56;;;-0.05;79.65
21401;BME280;18038;50.166;18.908;2023-04-08T05:57:38;98310.41;;;-0.03;79.49
21401;BME280;18038;50.166;18.908;2023-04-08T06:00:45;98316.47;;;-0.02;79.68
21401;BME280;18038;50.166;18.908;2023-04-08T06:03:52;98323.78;;;0.17;78.33
21401;BME280;18038;50.166;18.908;2023-04-08T06:06:58;98315.09;;;0.49;77.46
21401;BME280;18038;50.166;18.908;2023-04-08T06:10:10;98320.50;;;0.36;77.39
21401;BME280;18038;50.166;18.908;2023-04-08T06:13:16;98324.94;;;0.24;77.87
21401;BME280;18038;50.166;18.908;2023-04-08T06:16:24;98333.16;;;0.31;78.23
21401;BME280;18038;50.166;18.908;2023-04-08T06:19:30;98335.47;;;0.13;78.23
21401;BME280;18038;50.166;18.908;2023-04-08T06:22:37;98342.63;;;0.11;78.62
21401;BME280;18038;50.166;18.908;2023-04-08T06:25:45;98339.28;;;0.20;78.69
21401;BME280;18038;50.166;18.908;2023-04-08T06:28:54;98336.34;;;0.46;77.08
21401;BME280;18038;50.166;18.908;2023-04-08T06:32:05;98337.00;;;0.70;76.76
21401;BME280;18038;50.166;18.908;2023-04-08T06:35:13;98346.31;;;1.27;75.35
21401;BME280;18038;50.166;18.908;2023-04-08T06:38:19;98345.84;;;1.64;72.96
21401;BME280;18038;50.166;18.908;2023-04-08T06:41:29;98353.78;;;1.95;71.40
21401;BME280;18038;50.166;18.908;2023-04-08T06:44:49;98362.56;;;2.15;71.31
21401;BME280;18038;50.166;18.908;2023-04-08T06:47:56;98364.03;;;2.38;69.39
21401;BME280;18038;50.166;18.908;2023-04-08T06:51:02;98355.69;;;2.24;69.54
21401;BME280;18038;50.166;18.908;2023-04-08T06:54:10;98361.13;;;2.42;69.66
21401;BME280;18038;50.166;18.908;2023-04-08T06:57:18;98366.78;;;2.87;68.74
21401;BME280;18038;50.166;18.908;2023-04-08T07:00:25;98372.50;;;2.92;67.54
21401;BME280;18038;50.166;18.908;2023-04-08T07:03:31;98383.41;;;2.68;67.76
21401;BME280;18038;50.166;18.908;2023-04-08T07:06:38;98374.94;;;2.84;67.02
21401;BME280;18038;50.166;18.908;2023-04-08T07:09:44;98378.91;;;3.19;66.81
21401;BME280;18038;50.166;18.908;2023-04-08T07:12:54;98377.19;;;3.57;65.03
21401;BME280;18038;50.166;18.908;2023-04-08T07:16:00;98371.31;;;4.20;61.49
21401;BME280;18038;50.166;18.908;2023-04-08T07:19:06;98376.78;;;4.08;61.23
21401;BME280;18038;50.166;18.908;2023-04-08T07:22:13;98374.91;;;4.28;60.39
21401;BME280;18038;50.166;18.908;2023-04-08T07:25:20;98386.91;;;4.13;60.00
21401;BME280;18038;50.166;18.908;2023-04-08T07:28:29;98386.44;;;5.18;59.05
21401;BME280;18038;50.166;18.908;2023-04-08T07:31:39;98381.44;;;5.51;56.76
21401;BME280;18038;50.166;18.908;2023-04-08T07:34:47;98393.69;;;5.96;56.25
21401;BME280;18038;50.166;18.908;2023-04-08T07:37:54;98402.53;;;6.31;53.73
21401;BME280;18038;50.166;18.908;2023-04-08T07:41:00;98403.00;;;6.26;52.47
21401;BME280;18038;50.166;18.908;2023-04-08T07:44:10;98400.44;;;5.90;53.50
21401;BME280;18038;50.166;18.908;2023-04-08T07:47:18;98405.28;;;6.55;52.92
21401;BME280;18038;50.166;18.908;2023-04-08T07:50:25;98402.44;;;6.57;52.44
21401;BME280;18038;50.166;18.908;2023-04-08T07:53:31;98407.69;;;7.42;51.30
21401;BME280;18038;50.166;18.908;2023-04-08T07:56:38;98399.50;;;7.27;49.55
21401;BME280;18038;50.166;18.908;2023-04-08T07:59:48;98403.50;;;7.72;49.51
21401;BME280;18038;50.166;18.908;2023-04-08T08:02:56;98394.81;;;7.13;49.28
21401;BME280;18038;50.166;18.908;2023-04-08T08:06:10;98397.31;;;7.14;49.58
21401;BME280;18038;50.166;18.908;2023-04-08T08:09:18;98407.19;;;7.71;48.09
21401;BME280;18038;50.166;18.908;2023-04-08T08:12:24;98409.50;;;7.66;48.75
21401;BME280;18038;50.166;18.908;2023-04-08T08:15:34;98403.16;;;7.83;45.94
21401;BME280;18038;50.166;18.908;2023-04-08T08:18:40;98409.28;;;8.17;45.88
21401;BME280;18038;50.166;18.908;2023-04-08T08:21:47;98416.03;;;8.36;45.08
21401;BME280;18038;50.166;18.908;2023-04-08T08:24:55;98408.34;;;7.77;45.42
21401;BME280;18038;50.166;18.908;2023-04-08T08:28:10;98408.44;;;8.08;46.44
21401;BME280;18038;50.166;18.908;2023-04-08T08:31:18;98415.78;;;7.98;44.63
21401;BME280;18038;50.166;18.908;2023-04-08T08:34:25;98413.63;;;7.44;46.95
21401;BME280;18038;50.166;18.908;2023-04-08T08:37:31;98416.31;;;7.77;46.25
21401;BME280;18038;50.166;18.908;2023-04-08T08:40:38;98412.72;;;8.33;45.90
21401;BME280;18038;50.166;18.908;2023-04-08T08:43:45;98415.72;;;8.78;45.32
21401;BME280;18038;50.166;18.908;2023-04-08T08:46:56;98414.47;;;8.97;43.74
21401;BME280;18038;50.166;18.908;2023-04-08T08:50:03;98425.81;;;10.06;41.43
21401;BME280;18038;50.166;18.908;2023-04-08T08:53:10;98415.06;;;10.29;41.32
21401;BME280;18038;50.166;18.908;2023-04-08T08:56:16;98420.84;;;9.88;42.03
21401;BME280;18038;50.166;18.908;2023-04-08T08:59:24;98421.38;;;9.60;41.49
21401;BME280;18038;50.166;18.908;2023-04-08T09:02:32;98425.53;;;9.40;42.84
21401;BME280;18038;50.166;18.908;2023-04-08T09:05:47;98436.41;;;9.07;43.33
21401;BME280;18038;50.166;18.908;2023-04-08T09:08:56;98434.28;;;9.26;41.91
21401;BME280;18038;50.166;18.908;2023-04-08T09:12:04;98442.47;;;9.47;42.83
21401;BME280;18038;50.166;18.908;2023-04-08T09:15:19;98445.97;;;9.94;41.52
21401;BME280;18038;50.166;18.908;2023-04-08T09:18:28;98447.75;;;9.93;42.07
21401;BME280;18038;50.166;18.908;2023-04-08T09:21:36;98447.09;;;9.53;41.43
21401;BME280;18038;50.166;18.908;2023-04-08T09:25:22;98448.81;;;9.69;42.41
21401;BME280;18038;50.166;18.908;2023-04-08T09:28:28;98452.13;;;9.94;41.79
21401;BME280;18038;50.166;18.908;2023-04-08T09:31:53;98444.44;;;10.88;39.97
21401;BME280;18038;50.166;18.908;2023-04-08T09:35:03;98460.41;;;10.97;38.85
21401;BME280;18038;50.166;18.908;2023-04-08T09:38:14;98444.47;;;10.59;40.49
21401;BME280;18038;50.166;18.908;2023-04-08T09:41:27;98450.13;;;10.49;41.20
21401;BME280;18038;50.166;18.908;2023-04-08T09:44:42;98445.53;;;11.09;40.59
21401;BME280;18038;50.166;18.908;2023-04-08T09:47:56;98451.22;;;11.21;39.26
21401;BME280;18038;50.166;18.908;2023-04-08T09:51:15;98449.91;;;11.31;39.07
21401;BME280;18038;50.166;18.908;2023-04-08T09:54:34;98452.34;;;11.91;37.75
21401;BME280;18038;50.166;18.908;2023-04-08T09:57:51;98440.69;;;10.38;40.09
21401;BME280;18038;50.166;18.908;2023-04-08T10:01:23;98450.03;;;11.08;40.14
21401;BME280;18038;50.166;18.908;2023-04-08T10:04:38;98450.16;;;9.42;42.01
21401;BME280;18038;50.166;18.908;2023-04-08T10:07:51;98447.31;;;9.67;40.46
21401;BME280;18038;50.166;18.908;2023-04-08T10:10:58;98452.47;;;9.91;40.75
21401;BME280;18038;50.166;18.908;2023-04-08T10:14:11;98454.78;;;9.71;40.81
21401;BME280;18038;50.166;18.908;2023-04-08T10:17:25;98452.13;;;9.25;40.47
21401;BME280;18038;50.166;18.908;2023-04-08T10:20:42;98461.75;;;9.26;41.63
21401;BME280;18038;50.166;18.908;2023-04-08T10:23:57;98458.44;;;8.93;42.45
21401;BME280;18038;50.166;18.908;2023-04-08T10:27:37;98460.47;;;8.27;44.49
21401;BME280;18038;50.166;18.908;2023-04-08T10:30:46;98452.50;;;8.10;45.02
21401;BME280;18038;50.166;18.908;2023-04-08T10:33:53;98458.97;;;8.24;44.40
21401;BME280;18038;50.166;18.908;2023-04-08T10:37:01;98453.78;;;8.39;44.39
21401;BME280;18038;50.166;18.908;2023-04-08T10:40:17;98447.31;;;9.20;43.70
21401;BME280;18038;50.166;18.908;2023-04-08T10:43:24;98453.81;;;10.10;41.09
21401;BME280;18038;50.166;18.908;2023-04-08T10:46:36;98453.56;;;10.20;40.92
21401;BME280;18038;50.166;18.908;2023-04-08T10:49:44;98445.06;;;10.01;41.11
21401;BME280;18038;50.166;18.908;2023-04-08T10:52:55;98453.81;;;10.10;41.02
21401;BME280;18038;50.166;18.908;2023-04-08T10:56:08;98450.28;;;10.62;40.77
21401;BME280;18038;50.166;18.908;2023-04-08T10:59:26;98467.38;;;10.38;41.04
21401;BME280;18038;50.166;18.908;2023-04-08T11:02:39;98463.88;;;10.23;40.19
21401;BME280;18038;50.166;18.908;2023-04-08T11:05:45;98459.19;;;9.64;43.78
21401;BME280;18038;50.166;18.908;2023-04-08T11:08:56;98471.41;;;8.48;46.18
21401;BME280;18038;50.166;18.908;2023-04-08T11:12:05;98462.97;;;8.20;47.10
21401;BME280;18038;50.166;18.908;2023-04-08T11:15:12;98462.47;;;7.92;48.25
21401;BME280;18038;50.166;18.908;2023-04-08T11:18:20;98469.25;;;7.29;49.82
21401;BME280;18038;50.166;18.908;2023-04-08T11:21:29;98468.38;;;7.20;50.41
21401;BME280;18038;50.166;18.908;2023-04-08T11:24:36;98459.97;;;7.41;50.11
21401;BME280;18038;50.166;18.908;2023-04-08T11:27:48;98465.72;;;7.29;50.80
21401;BME280;18038;50.166;18.908;2023-04-08T11:30:55;98455.88;;;7.63;49.38
21401;BME280;18038;50.166;18.908;2023-04-08T11:34:11;98456.03;;;7.70;50.45
21401;BME280;18038;50.166;18.908;2023-04-08T11:37:35;98464.13;;;7.44;50.04
21401;BME280;18038;50.166;18.908;2023-04-08T11:40:52;98468.63;;;7.52;49.71
21401;BME280;18038;50.166;18.908;2023-04-08T11:44:01;98465.06;;;7.18;49.74
21401;BME280;18038;50.166;18.908;2023-04-08T11:47:13;98472.34;;;7.08;49.79
21401;BME280;18038;50.166;18.908;2023-04-08T11:50:23;98468.56;;;7.27;50.33
21401;BME280;18038;50.166;18.908;2023-04-08T11:53:37;98452.78;;;7.26;49.90
21401;BME280;18038;50.166;18.908;2023-04-08T11:56:49;98466.69;;;7.03;51.05
21401;BME280;18038;50.166;18.908;2023-04-08T12:00:01;98469.69;;;7.08;50.29
21401;BME280;18038;50.166;18.908;2023-04-08T12:03:12;98469.97;;;7.39;49.70
21401;BME280;18038;50.166;18.908;2023-04-08T12:06:19;98476.34;;;7.29;49.51
21401;BME280;18038;50.166;18.908;2023-04-08T12:09:32;98475.47;;;7.04;50.40
21401;BME280;18038;50.166;18.908;2023-04-08T12:12:39;98467.22;;;7.23;50.14
21401;BME280;18038;50.166;18.908;2023-04-08T12:15:48;98466.50;;;7.05;50.47
21401;BME280;18038;50.166;18.908;2023-04-08T12:18:55;98461.88;;;7.07;51.25
21401;BME280;18038;50.166;18.908;2023-04-08T12:22:01;98461.09;;;6.80;50.85
21401;BME280;18038;50.166;18.908;2023-04-08T12:25:08;98467.28;;;6.54;51.98
21401;BME280;18038;50.166;18.908;2023-04-08T12:28:14;98464.97;;;6.51;52.18
21401;BME280;18038;50.166;18.908;2023-04-08T12:31:24;98463.31;;;5.98;53.41
21401;BME280;18038;50.166;18.908;2023-04-08T12:34:30;98471.47;;;5.79;54.53
21401;BME280;18038;50.166;18.908;2023-04-08T12:37:37;98481.22;;;5.60;54.77
21401;BME280;18038;50.166;18.908;2023-04-08T12:40:45;98478.13;;;5.65;55.62
21401;BME280;18038;50.166;18.908;2023-04-08T12:43:52;98480.53;;;5.58;55.66
21401;BME280;18038;50.166;18.908;2023-04-08T12:47:00;98467.88;;;5.34;56.56
21401;BME280;18038;50.166;18.908;2023-04-08T12:50:18;98478.78;;;5.31;57.35
21401;BME280;18038;50.166;18.908;2023-04-08T12:53:25;98474.44;;;5.48;57.14
21401;BME280;18038;50.166;18.908;2023-04-08T12:56:32;98474.06;;;5.43;57.33
21401;BME280;18038;50.166;18.908;2023-04-08T12:59:38;98484.97;;;5.40;57.85
21401;BME280;18038;50.166;18.908;2023-04-08T13:02:47;98485.06;;;5.48;58.76
21401;BME280;18038;50.166;18.908;2023-04-08T13:05:53;98480.13;;;5.35;59.18
21401;BME280;18038;50.166;18.908;2023-04-08T13:09:05;98484.16;;;5.39;59.96
21401;BME280;18038;50.166;18.908;2023-04-08T13:12:11;98497.22;;;4.95;61.37
21401;BME280;18038;50.166;18.908;2023-04-08T13:15:18;98487.28;;;4.42;62.81
21401;BME280;18038;50.166;18.908;2023-04-08T13:18:27;98495.78;;;4.46;63.66
21401;BME280;18038;50.166;18.908;2023-04-08T13:21:34;98503.16;;;4.52;64.40
21401;BME280;18038;50.166;18.908;2023-04-08T13:24:40;98493.91;;;4.56;64.15
21401;BME280;18038;50.166;18.908;2023-04-08T13:27:47;98500.75;;;4.58;64.53
21401;BME280;18038;50.166;18.908;2023-04-08T13:30:56;98489.31;;;4.68;64.82
21401;BME280;18038;50.166;18.908;2023-04-08T13:34:12;98494.72;;;4.66;65.46
21401;BME280;18038;50.166;18.908;2023-04-08T13:37:18;98497.81;;;4.62;65.45
21401;BME280;18038;50.166;18.908;2023-04-08T13:40:25;98492.75;;;4.41;66.80
21401;BME280;18038;50.166;18.908;2023-04-08T13:43:31;98492.47;;;4.34;67.04
21401;BME280;18038;50.166;18.908;2023-04-08T13:46:41;98491.28;;;4.56;66.65
21401;BME280;18038;50.166;18.908;2023-04-08T13:49:50;98497.44;;;4.47;66.45
21401;BME280;18038;50.166;18.908;2023-04-08T13:53:05;98498.56;;;4.54;66.83
21401;BME280;18038;50.166;18.908;2023-04-08T13:56:11;98490.22;;;4.49;66.83
21401;BME280;18038;50.166;18.908;2023-04-08T13:59:24;98486.88;;;4.74;66.30
21401;BME280;18038;50.166;18.908;2023-04-08T14:02:32;98486.16;;;4.82;65.88
21401;BME280;18038;50.166;18.908;2023-04-08T14:05:45;98487.78;;;4.93;66.02
21401;BME280;18038;50.166;18.908;2023-04-08T14:08:57;98486.16;;;5.10;65.69
21401;BME280;18038;50.166;18.908;2023-04-08T14:12:04;98490.03;;;5.15;65.07
21401;BME280;18038;50.166;18.908;2023-04-08T14:15:10;98476.69;;;5.07;65.11
21401;BME280;18038;50.166;18.908;2023-04-08T14:18:18;98487.63;;;4.94;65.66
21401;BME280;18038;50.166;18.908;2023-04-08T14:21:27;98483.34;;;5.11;65.35
21401;BME280;18038;50.166;18.908;2023-04-08T14:24:40;98489.28;;;5.23;65.27
21401;BME280;18038;50.166;18.908;2023-04-08T14:27:50;98489.19;;;5.15;65.42
21401;BME280;18038;50.166;18.908;2023-04-08T14:31:01;98482.47;;;5.20;65.20
21401;BME280;18038;50.166;18.908;2023-04-08T14:34:10;98484.47;;;5.09;65.41
21401;BME280;18038;50.166;18.908;2023-04-08T14:37:19;98480.63;;;5.03;65.78
21401;BME280;18038;50.166;18.908;2023-04-08T14:40:28;98482.03;;;4.97;65.96
21401;BME280;18038;50.166;18.908;2023-04-08T14:43:35;98495.00;;;4.73;66.48
21401;BME280;18038;50.166;18.908;2023-04-08T14:46:46;98490.31;;;4.85;66.42
21401;BME280;18038;50.166;18.908;2023-04-08T14:49:53;98487.91;;;4.64;66.94
21401;BME280;18038;50.166;18.908;2023-04-08T14:53:01;98493.91;;;4.56;67.56
21401;BME280;18038;50.166;18.908;2023-04-08T14:56:09;98487.28;;;4.52;67.59
21401;BME280;18038;50.166;18.908;2023-04-08T14:59:18;98488.81;;;4.45;67.81
21401;BME280;18038;50.166;18.908;2023-04-08T15:02:29;98496.03;;;4.52;67.85
21401;BME280;18038;50.166;18.908;2023-04-08T15:05:35;98503.16;;;4.42;68.37
21401;BME280;18038;50.166;18.908;2023-04-08T15:08:48;98501.09;;;4.46;68.65
21401;BME280;18038;50.166;18.908;2023-04-08T15:11:55;98499.00;;;4.40;68.24
21401;BME280;18038;50.166;18.908;2023-04-08T15:15:05;98499.69;;;4.42;68.43
21401;BME280;18038;50.166;18.908;2023-04-08T15:18:18;98504.47;;;4.28;68.77
21401;BME280;18038;50.166;18.908;2023-04-08T15:21:31;98499.69;;;4.42;68.90
21401;BME280;18038;50.166;18.908;2023-04-08T15:24:40;98495.91;;;4.54;68.63
21401;BME280;18038;50.166;18.908;2023-04-08T15:27:50;98502.03;;;4.45;68.91
21401;BME280;18038;50.166;18.908;2023-04-08T15:30:56;98504.66;;;4.54;68.58
21401;BME280;18038;50.166;18.908;2023-04-08T15:34:06;98499.69;;;4.79;68.56
21401;BME280;18038;50.166;18.908;2023-04-08T15:37:15;98499.94;;;4.86;67.46
21401;BME280;18038;50.166;18.908;2023-04-08T15:40:25;98499.16;;;4.75;67.72
21401;BME280;18038;50.166;18.908;2023-04-08T15:43:31;98510.75;;;4.65;68.13
21401;BME280;18038;50.166;18.908;2023-04-08T15:46:41;98508.16;;;4.82;68.21
21401;BME280;18038;50.166;18.908;2023-04-08T15:49:51;98506.59;;;4.90;67.71
21401;BME280;18038;50.166;18.908;2023-04-08T15:52:58;98509.44;;;4.78;68.12
21401;BME280;18038;50.166;18.908;2023-04-08T15:56:17;98510.88;;;4.73;68.46
21401;BME280;18038;50.166;18.908;2023-04-08T15:59:27;98513.00;;;4.59;69.03
21401;BME280;18038;50.166;18.908;2023-04-08T16:02:33;98517.28;;;4.70;69.23
21401;BME280;18038;50.166;18.908;2023-04-08T16:05:42;98515.06;;;4.66;68.98
21401;BME280;18038;50.166;18.908;2023-04-08T16:08:48;98512.94;;;4.69;68.87
21401;BME280;18038;50.166;18.908;2023-04-08T16:11:58;98518.38;;;4.77;69.00
21401;BME280;18038;50.166;18.908;2023-04-08T16:15:08;98514.31;;;4.83;68.70
21401;BME280;18038;50.166;18.908;2023-04-08T16:18:16;98521.13;;;4.86;68.31
21401;BME280;18038;50.166;18.908;2023-04-08T16:21:25;98519.84;;;4.90;68.47
21401;BME280;18038;50.166;18.908;2023-04-08T16:24:34;98520.22;;;4.95;68.33
21401;BME280;18038;50.166;18.908;2023-04-08T16:27:44;98521.94;;;4.86;68.20
21401;BME280;18038;50.166;18.908;2023-04-08T16:30:51;98513.97;;;4.96;68.32
21401;BME280;18038;50.166;18.908;2023-04-08T16:33:57;98520.81;;;4.89;68.73
21401;BME280;18038;50.166;18.908;2023-04-08T16:37:12;98525.44;;;4.77;68.83
21401;BME280;18038;50.166;18.908;2023-04-08T16:40:20;98525.63;;;4.75;69.29